Pagina principale
METAR-TAF:

METAR-TAF

Aeroporti :

Aeroporto di Pau-Pyrénées

Pau, Francia

latitudine: 43-23N, longitudine: 000-25W, altezza: 188 m

Osservazione

Il bollettino è stato emesso 18 minuti fa, alle 01:30 UTC
Vento 2 kt da direzioni variabili
Temperature 17°C
Umidità 82%
Pressione 1011 hPa
Visibilità 10 km o più
nessuna nube inferiore a 1500 m e nessun cumulonembo

METAR: LFBP 310130Z AUTO VRB02KT CAVOK 17/14 Q1011 NOSIG

Ora: 03:48 (01:48 UTC)

Previsione

Il bollettino è stato emesso 2 ore e 48 minuti fa, alle 23:00 UTC
Previsione valida dal 31 alle 00 UTC al 31 alle 24 UTC
Vento 7 kt da est
Visibilità 10 km o più
nessuna nube inferiore a 1500 m e nessun cumulonembo
Temporaneamente
dal 31 alle 19 UTC al 31 alle 24 UTC
Vento 10 kt da ovest con raffiche fino a 20 kt
Poco nuvoloso ad un'altezza di 5000 ft, Cumulonembo.
Nubi sparse ad un'altezza di 6000 ft, Cumulo congesto.

TAF: LFBP 302300Z 3100/3124 08007KT CAVOK TEMPO 3119/3124 27010G20KT FEW050CB SCT060TCU

Osservazioni e previsioni meteorologiche di più di 4000 aeroporti (messaggi METAR e TAF).

Le stazioni disponibili sono rappresentate dai dischi gialli e rossi sulla carta.

Puntare il mouse per vedere il nome della stazione.

Clicca sopra per visualizzare le osservazioni e previsioni meteorologiche.

Per cambiare la mappa : fare clic sui pulsanti verdi con una croce nera per ingrandire, il pulsante verde con un trattino per diminuire, o sulla freccia verde per le mappe adiacenti.


METAR-TAF: